createdAt,value
2019-05-13T00:00:44.677Z,10.65
2019-05-13T00:03:13.661Z,11.00
2019-05-13T00:05:44.394Z,10.03
2019-05-13T00:08:13.969Z,10.82
2019-05-13T00:10:44.800Z,9.55
2019-05-13T00:13:14.791Z,10.15
2019-05-13T00:15:44.295Z,10.50
2019-05-13T00:18:14.425Z,10.58
2019-05-13T00:20:44.366Z,10.03
2019-05-13T00:23:14.263Z,10.18
2019-05-13T00:25:44.393Z,10.00
2019-05-13T00:28:14.457Z,10.80
2019-05-13T00:30:44.548Z,10.03
2019-05-13T00:33:14.123Z,11.55
2019-05-13T00:35:44.254Z,9.63
2019-05-13T00:38:14.110Z,10.38
2019-05-13T00:40:44.364Z,10.48
2019-05-13T00:43:14.290Z,11.18
2019-05-13T00:45:44.596Z,11.48
2019-05-13T00:48:14.381Z,10.72
2019-05-13T00:50:44.340Z,11.53
2019-05-13T00:53:13.418Z,11.00
2019-05-13T00:55:44.215Z,10.80
2019-05-13T00:58:13.965Z,11.80
2019-05-13T01:00:44.474Z,10.55
2019-05-13T01:03:14.205Z,10.90
2019-05-13T01:05:44.434Z,11.00
2019-05-13T01:08:14.585Z,10.10
2019-05-13T01:10:45.230Z,9.70
2019-05-13T01:13:13.752Z,10.23
2019-05-13T01:15:44.339Z,10.80
2019-05-13T01:18:14.280Z,11.25
2019-05-13T01:20:43.685Z,8.70
2019-05-13T01:23:14.136Z,10.10
2019-05-13T01:25:44.450Z,10.15
2019-05-13T01:28:13.460Z,10.58
2019-05-13T01:30:43.840Z,10.00
2019-05-13T01:33:14.422Z,10.20
2019-05-13T01:35:44.536Z,9.50
2019-05-13T01:38:13.589Z,10.58
2019-05-13T01:40:43.916Z,11.63
2019-05-13T01:43:14.375Z,10.95
2019-05-13T01:45:44.112Z,11.00
2019-05-13T01:48:14.153Z,11.53
2019-05-13T01:50:44.409Z,11.97
2019-05-13T01:53:14.508Z,11.55
2019-05-13T01:55:44.347Z,10.98
2019-05-13T01:58:14.566Z,11.57
2019-05-13T02:00:44.281Z,12.15
2019-05-13T02:03:14.454Z,12.40
2019-05-13T02:05:44.338Z,11.38
2019-05-13T02:08:14.365Z,12.40
2019-05-13T02:10:50.334Z,12.60
2019-05-13T02:13:18.878Z,11.53
2019-05-13T02:15:47.298Z,12.33
2019-05-13T02:18:15.732Z,12.20
2019-05-13T02:20:44.486Z,12.63
2019-05-13T02:23:14.456Z,11.53
2019-05-13T02:25:43.568Z,12.07
2019-05-13T02:28:13.839Z,11.08
2019-05-13T02:30:45.443Z,13.58
2019-05-13T02:33:13.399Z,12.60
2019-05-13T02:35:43.416Z,13.80
2019-05-13T02:38:22.809Z,11.15
2019-05-13T02:40:43.275Z,11.78
2019-05-13T02:43:13.649Z,12.43
2019-05-13T02:45:43.136Z,11.70
2019-05-13T02:48:12.772Z,12.55
2019-05-13T02:50:44.102Z,12.78
2019-05-13T02:53:13.686Z,11.85
2019-05-13T02:55:43.663Z,11.88
2019-05-13T02:58:12.517Z,11.12
2019-05-13T03:00:44.074Z,12.30
2019-05-13T03:03:12.924Z,10.78
2019-05-13T03:05:42.908Z,10.63
2019-05-13T03:08:12.751Z,9.70
2019-05-13T03:10:43.359Z,10.88
2019-05-13T03:13:12.679Z,11.20
2019-05-13T03:15:54.822Z,12.18
2019-05-13T03:18:23.259Z,11.18
2019-05-13T03:20:52.918Z,10.43
2019-05-13T03:23:22.720Z,10.40
2019-05-13T03:25:53.791Z,12.10
2019-05-13T03:28:22.553Z,11.45
2019-05-13T03:30:56.324Z,11.95
2019-05-13T03:33:27.312Z,10.80
2019-05-13T03:35:55.689Z,12.63
2019-05-13T03:38:22.726Z,12.13
2019-05-13T03:40:52.691Z,11.03
2019-05-13T03:43:23.017Z,11.55
2019-05-13T03:45:54.125Z,12.03
2019-05-13T03:48:24.378Z,11.22
2019-05-13T03:50:53.588Z,11.25
2019-05-13T03:53:23.420Z,12.23
2019-05-13T03:55:54.048Z,11.15
2019-05-13T03:58:23.853Z,10.53
2019-05-13T04:00:52.698Z,10.75
2019-05-13T04:03:22.837Z,11.57
2019-05-13T04:05:52.675Z,10.75
2019-05-13T04:08:22.861Z,11.73
2019-05-13T04:10:52.511Z,12.90
2019-05-13T04:13:23.259Z,10.00
2019-05-13T04:15:53.010Z,11.88
2019-05-13T04:18:23.486Z,11.50
2019-05-13T04:20:53.183Z,12.03
2019-05-13T04:23:23.211Z,11.22
2019-05-13T04:25:53.705Z,10.80
2019-05-13T04:28:22.425Z,12.07
2019-05-13T04:30:52.545Z,12.25
2019-05-13T04:33:23.017Z,11.18
2019-05-13T04:35:52.947Z,12.28
2019-05-13T04:38:22.903Z,11.55
2019-05-13T04:40:53.023Z,12.30
2019-05-13T04:43:23.612Z,11.73
2019-05-13T04:45:52.645Z,11.55
2019-05-13T04:48:22.862Z,11.73
2019-05-13T04:50:53.313Z,11.85
2019-05-13T04:53:22.856Z,11.57
2019-05-13T04:55:52.638Z,12.30
2019-05-13T04:58:23.509Z,11.48
2019-05-13T05:01:16.218Z,11.60
2019-05-13T05:03:47.780Z,10.58
2019-05-13T05:06:22.853Z,10.95
2019-05-13T05:09:06.265Z,10.58
2019-05-13T05:11:46.043Z,12.15
2019-05-13T05:14:37.529Z,12.10
2019-05-13T05:17:27.077Z,10.58
2019-05-13T05:20:03.673Z,10.72
2019-05-13T05:22:52.613Z,10.32
2019-05-13T05:25:52.728Z,10.20
2019-05-13T05:28:33.664Z,10.35
2019-05-13T05:31:17.241Z,9.70
2019-05-13T05:34:06.217Z,7.77
2019-05-13T05:36:52.015Z,10.32
2019-05-13T05:39:27.969Z,9.73
2019-05-13T05:41:58.245Z,9.63
2019-05-13T05:44:29.173Z,10.65
2019-05-13T05:47:02.562Z,9.18
2019-05-13T05:49:32.019Z,9.65
2019-05-13T05:52:03.734Z,9.85
2019-05-13T05:54:37.693Z,11.08
2019-05-13T05:57:07.457Z,10.50
2019-05-13T05:59:36.912Z,7.92
2019-05-13T06:02:07.046Z,9.70
2019-05-13T06:04:35.942Z,7.50
2019-05-13T06:07:05.098Z,6.83
2019-05-13T06:09:33.591Z,7.42
2019-05-13T06:12:02.237Z,6.80
2019-05-13T06:14:32.765Z,6.80
2019-05-13T06:17:02.742Z,6.83
2019-05-13T06:19:32.045Z,7.53
2019-05-13T06:22:02.339Z,6.17
2019-05-13T06:24:31.333Z,6.80
2019-05-13T06:27:01.661Z,6.62
2019-05-13T06:29:31.609Z,7.42
2019-05-13T06:32:15.393Z,6.50
2019-05-13T06:34:32.897Z,6.15
2019-05-13T06:37:01.925Z,5.95
2019-05-13T06:39:31.686Z,5.22
2019-05-13T06:42:02.680Z,4.90
2019-05-13T06:44:36.470Z,5.25
2019-05-13T06:47:04.937Z,5.17
2019-05-13T06:49:33.351Z,4.12
2019-05-13T06:52:02.079Z,5.17
2019-05-13T06:54:33.166Z,4.15
2019-05-13T06:57:04.167Z,4.50
2019-05-13T06:59:31.753Z,4.28
2019-05-13T07:02:02.160Z,4.62
2019-05-13T07:04:32.591Z,4.87
2019-05-13T07:07:09.850Z,3.90
2019-05-13T07:09:32.389Z,4.17
2019-05-13T07:12:02.930Z,4.97
2019-05-13T07:14:32.401Z,3.98
2019-05-13T07:17:02.135Z,5.05
2019-05-13T07:19:32.362Z,4.90
2019-05-13T07:22:02.854Z,3.98
2019-05-13T07:24:32.291Z,4.12
2019-05-13T07:27:01.974Z,3.92
2019-05-13T07:29:32.431Z,4.22
2019-05-13T07:32:01.850Z,4.37
2019-05-13T07:34:33.399Z,4.55
2019-05-13T07:37:01.966Z,4.85
2019-05-13T07:39:32.731Z,4.58
2019-05-13T07:42:05.454Z,4.78
2019-05-13T07:44:32.611Z,4.42
2019-05-13T07:47:03.476Z,4.40
2019-05-13T07:49:31.673Z,4.35
2019-05-13T07:52:01.709Z,4.37
2019-05-13T07:54:32.878Z,4.28
2019-05-13T07:57:02.027Z,4.15
2019-05-13T07:59:31.884Z,4.67
2019-05-13T08:02:02.180Z,4.10
2019-05-13T08:04:33.296Z,4.00
2019-05-13T08:07:01.898Z,3.87
2019-05-13T08:09:31.745Z,3.85
2019-05-13T08:12:10.111Z,4.22
2019-05-13T08:14:32.657Z,4.33
2019-05-13T08:17:02.538Z,3.30
2019-05-13T08:19:32.525Z,3.90
2019-05-13T08:22:02.087Z,4.00
2019-05-13T08:24:31.577Z,3.90
2019-05-13T08:27:02.004Z,3.70
2019-05-13T08:29:32.872Z,3.67
2019-05-13T08:32:02.757Z,3.35
2019-05-13T08:34:32.907Z,3.77
2019-05-13T08:37:02.816Z,3.77
2019-05-13T08:39:36.559Z,3.35
2019-05-13T08:42:14.715Z,4.05
2019-05-13T08:44:32.705Z,3.58
2019-05-13T08:47:03.116Z,2.98
2019-05-13T08:49:32.584Z,3.70
2019-05-13T08:52:02.058Z,3.47
2019-05-13T08:54:32.810Z,3.17
2019-05-13T08:57:02.992Z,3.50
2019-05-13T08:59:31.938Z,3.95
2019-05-13T09:02:03.144Z,3.37
2019-05-13T09:04:31.590Z,3.85
2019-05-13T09:07:02.089Z,3.12
2019-05-13T09:09:31.700Z,3.33
2019-05-13T09:12:02.419Z,3.05
2019-05-13T09:14:32.437Z,2.98
2019-05-13T09:17:02.022Z,3.47
2019-05-13T09:19:32.213Z,3.67
2019-05-13T09:22:03.130Z,3.75
2019-05-13T09:24:37.126Z,2.58
2019-05-13T09:27:02.047Z,3.37
2019-05-13T09:29:32.313Z,3.17
2019-05-13T09:32:03.800Z,2.87
2019-05-13T09:34:32.780Z,3.65
2019-05-13T09:37:02.829Z,3.00
2019-05-13T09:39:32.287Z,3.37
2019-05-13T09:42:02.759Z,3.50
2019-05-13T09:44:32.936Z,3.37
2019-05-13T09:47:02.618Z,3.05
2019-05-13T09:49:32.885Z,2.70
2019-05-13T09:52:02.246Z,2.83
2019-05-13T09:54:32.544Z,2.65
2019-05-13T09:57:01.688Z,3.15
2019-05-13T09:59:31.850Z,2.80
2019-05-13T10:02:03.180Z,3.25
2019-05-13T10:04:31.817Z,4.08
2019-05-13T10:07:02.245Z,3.83
2019-05-13T10:09:32.525Z,3.30
2019-05-13T10:12:03.306Z,3.12
2019-05-13T10:14:32.730Z,3.02
2019-05-13T10:17:05.715Z,2.65
2019-05-13T10:19:32.448Z,2.85
2019-05-13T10:22:01.252Z,2.77
2019-05-13T10:24:32.347Z,2.67
2019-05-13T10:27:02.457Z,2.58
2019-05-13T10:29:32.097Z,2.98
2019-05-13T10:32:02.707Z,2.55
2019-05-13T10:34:32.025Z,2.22
2019-05-13T10:37:02.067Z,2.42
2019-05-13T10:39:31.156Z,2.60
2019-05-13T10:41:59.603Z,3.17
2019-05-13T10:44:28.139Z,3.27
2019-05-13T10:46:56.582Z,2.98
2019-05-13T10:49:24.994Z,3.22
2019-05-13T10:51:53.498Z,5.10
2019-05-13T10:54:21.988Z,4.65
2019-05-13T10:56:53.163Z,3.12
2019-05-13T10:59:22.940Z,3.22
2019-05-13T11:01:50.748Z,2.62
2019-05-13T11:04:21.875Z,2.83
2019-05-13T11:06:52.168Z,3.60
2019-05-13T11:09:21.787Z,2.80
2019-05-13T11:11:52.823Z,3.55
2019-05-13T11:14:21.961Z,3.37
2019-05-13T11:16:52.303Z,2.67
2019-05-13T11:19:23.100Z,4.97
2019-05-13T11:21:51.038Z,3.87
2019-05-13T11:24:19.511Z,2.90
2019-05-13T11:26:47.920Z,3.45
2019-05-13T11:29:16.432Z,5.42
2019-05-13T11:31:44.932Z,3.75
2019-05-13T11:34:13.443Z,3.55
2019-05-13T11:36:43.308Z,3.02
2019-05-13T11:39:12.948Z,3.17
2019-05-13T11:41:42.680Z,1.95
2019-05-13T11:46:42.681Z,2.70
2019-05-13T11:49:11.936Z,3.25
2019-05-13T11:51:42.593Z,2.42
2019-05-13T11:54:14.028Z,2.95
2019-05-13T11:56:48.434Z,3.15
2019-05-13T11:59:13.975Z,2.40
2019-05-13T12:01:42.741Z,2.65
2019-05-13T12:04:11.188Z,2.50
2019-05-13T12:06:45.853Z,2.83
2019-05-13T12:09:12.751Z,2.20
2019-05-13T12:11:40.091Z,3.45
2019-05-13T12:14:34.626Z,2.30
2019-05-13T12:16:38.628Z,3.00
2019-05-13T12:19:07.082Z,2.65
2019-05-13T12:21:41.947Z,2.50
2019-05-13T12:24:10.666Z,2.20
2019-05-13T12:26:36.041Z,2.22
2019-05-13T12:29:04.481Z,2.77
2019-05-13T12:31:33.706Z,2.58
2019-05-13T12:34:03.619Z,2.65
2019-05-13T12:36:33.052Z,2.67
2019-05-13T12:39:01.604Z,2.65
2019-05-13T12:41:33.081Z,2.50
2019-05-13T12:44:01.768Z,2.70
2019-05-13T12:46:30.430Z,3.25
2019-05-13T12:48:58.833Z,2.77
2019-05-13T12:51:27.829Z,2.80
2019-05-13T12:53:56.240Z,2.50
2019-05-13T12:56:24.696Z,2.50
2019-05-13T12:58:53.097Z,2.15
2019-05-13T13:01:23.883Z,2.22
2019-05-13T13:03:51.725Z,2.33
2019-05-13T13:06:31.301Z,2.12
2019-05-13T13:08:50.935Z,2.70
2019-05-13T13:11:22.516Z,3.02
2019-05-13T13:13:58.752Z,2.47
2019-05-13T13:34:18.899Z,2.55
2019-05-13T13:36:47.544Z,2.65
2019-05-13T13:39:16.044Z,2.15
2019-05-13T14:07:03.780Z,2.62
2019-05-13T17:48:48.117Z,2.70
2019-05-13T17:51:16.647Z,2.20
2019-05-13T17:53:45.243Z,2.12
2019-05-13T17:56:13.624Z,2.10
2019-05-13T17:58:42.202Z,3.12
2019-05-13T18:01:12.058Z,2.67
2019-05-13T18:03:41.206Z,2.25
2019-05-13T18:06:11.510Z,2.65
2019-05-13T18:08:41.188Z,2.47
2019-05-13T18:11:11.438Z,3.17
2019-05-13T18:13:43.126Z,3.15
2019-05-13T18:16:12.405Z,2.50
2019-05-13T18:18:46.940Z,2.80
2019-05-13T18:21:11.909Z,2.08
2019-05-13T18:23:41.423Z,2.87
2019-05-13T18:26:11.815Z,2.37
2019-05-13T18:28:42.159Z,2.80
2019-05-13T18:31:12.238Z,2.40
2019-05-13T18:33:42.398Z,2.22
2019-05-13T18:36:12.008Z,2.35
2019-05-13T18:38:41.828Z,2.12
2019-05-13T18:41:12.001Z,2.60
2019-05-13T18:43:41.370Z,30.65
2019-05-13T18:46:12.189Z,25.40
2019-05-13T18:48:57.839Z,57.33
2019-05-13T18:51:11.837Z,17.30
2019-05-13T18:53:41.466Z,6.58
2019-05-13T18:56:12.386Z,18.48
2019-05-13T18:58:40.916Z,25.32
2019-05-13T19:01:11.220Z,20.48
2019-05-13T19:03:41.421Z,5.60
2019-05-13T19:06:11.663Z,4.85
2019-05-13T19:08:41.371Z,7.65
2019-05-13T19:11:11.760Z,8.63
2019-05-13T19:13:41.705Z,6.62
2019-05-13T19:16:11.859Z,8.48
2019-05-13T19:18:42.688Z,7.10
2019-05-13T19:21:11.761Z,7.35
2019-05-13T19:23:41.969Z,9.68
2019-05-13T19:26:11.414Z,5.17
2019-05-13T19:28:40.474Z,4.50
2019-05-13T19:31:11.537Z,4.70
2019-05-13T19:33:41.630Z,3.15
2019-05-13T19:36:11.793Z,4.83
2019-05-13T19:38:42.251Z,4.83
2019-05-13T19:41:12.149Z,3.95
2019-05-13T19:43:43.398Z,4.00
2019-05-13T19:46:12.899Z,3.75
2019-05-13T19:48:42.214Z,4.50
2019-05-13T19:51:14.015Z,4.45
2019-05-13T19:53:44.984Z,3.40
2019-05-13T19:56:14.541Z,3.60
2019-05-13T19:58:43.936Z,3.33
2019-05-13T20:01:13.389Z,4.22
2019-05-13T20:03:42.912Z,4.50
2019-05-13T20:06:12.349Z,3.20
2019-05-13T20:08:41.560Z,3.50
2019-05-13T20:11:11.594Z,3.92
2019-05-13T20:13:41.794Z,3.35
2019-05-13T20:16:11.739Z,3.83
2019-05-13T20:18:41.442Z,3.92
2019-05-13T20:21:12.869Z,3.45
2019-05-13T20:23:41.435Z,3.52
2019-05-13T20:26:10.448Z,3.15
2019-05-13T20:28:38.854Z,2.65
2019-05-13T20:31:07.288Z,2.95
2019-05-13T20:33:39.638Z,3.08
2019-05-13T20:36:05.861Z,3.30
2019-05-13T20:38:34.305Z,2.67
2019-05-13T20:41:02.805Z,3.15
2019-05-13T20:43:32.836Z,3.20
2019-05-13T20:46:02.004Z,3.27
2019-05-13T20:48:32.019Z,3.12
2019-05-13T20:51:02.532Z,3.10
2019-05-13T20:53:31.200Z,2.92
2019-05-13T20:56:01.715Z,2.95
2019-05-13T20:58:31.833Z,2.83
2019-05-13T21:01:02.280Z,2.50
2019-05-13T21:03:31.552Z,2.92
2019-05-13T21:06:00.282Z,2.80
2019-05-13T21:08:28.781Z,3.00
2019-05-13T21:10:57.209Z,2.40
2019-05-13T21:13:25.629Z,2.62
2019-05-13T21:15:54.103Z,2.50
2019-05-13T21:18:22.501Z,2.70
2019-05-13T21:20:50.922Z,2.37
2019-05-13T21:23:21.601Z,2.60
2019-05-13T21:25:51.101Z,2.72
2019-05-13T21:28:21.842Z,2.55
2019-05-13T21:30:51.425Z,2.30
2019-05-13T21:33:22.171Z,2.37
2019-05-13T21:35:51.179Z,2.30
2019-05-13T21:38:22.187Z,2.45
2019-05-13T21:40:52.059Z,2.17
2019-05-13T21:43:21.635Z,2.50
2019-05-13T21:45:52.107Z,1.98
2019-05-13T21:48:21.731Z,2.92
2019-05-13T21:50:51.597Z,2.60
2019-05-13T21:53:24.182Z,2.52
2019-05-13T21:55:52.058Z,2.67
2019-05-13T21:58:22.250Z,1.82
2019-05-13T22:00:52.108Z,2.10
2019-05-13T22:03:20.865Z,2.10
2019-05-13T22:05:51.334Z,2.00
2019-05-13T22:08:21.635Z,3.08
2019-05-13T22:10:52.215Z,2.35
2019-05-13T22:13:19.940Z,2.15
2019-05-13T22:15:48.384Z,2.42
2019-05-13T22:18:16.901Z,2.30
2019-05-13T22:20:50.486Z,2.52
2019-05-13T22:23:15.473Z,2.30
2019-05-13T22:25:43.922Z,2.62
2019-05-13T22:28:12.357Z,1.72
2019-05-13T22:30:41.244Z,2.95
2019-05-13T22:33:12.149Z,3.12
2019-05-13T22:35:41.633Z,2.62
2019-05-13T22:38:12.267Z,1.80
2019-05-13T22:40:41.949Z,2.37
2019-05-13T22:43:12.167Z,2.45
2019-05-13T22:45:41.862Z,2.37
2019-05-13T22:48:12.059Z,2.30
2019-05-13T22:50:42.301Z,2.25
2019-05-13T22:53:12.003Z,2.22
2019-05-13T22:55:41.885Z,2.58
2019-05-13T22:58:10.577Z,2.10
2019-05-13T23:00:39.001Z,2.83
2019-05-13T23:03:07.417Z,3.00
2019-05-13T23:05:35.815Z,2.12
2019-05-13T23:08:04.237Z,2.17
2019-05-13T23:10:32.633Z,2.40
2019-05-13T23:13:02.168Z,2.50
2019-05-13T23:15:30.736Z,1.98
2019-05-13T23:18:01.067Z,2.33
2019-05-13T23:20:31.593Z,2.40
2019-05-13T23:23:01.294Z,2.67
2019-05-13T23:25:31.833Z,2.25
2019-05-13T23:27:59.981Z,2.30
2019-05-13T23:30:28.401Z,2.80
2019-05-13T23:32:56.818Z,2.52
2019-05-13T23:35:25.229Z,2.25
2019-05-13T23:37:53.640Z,2.72
2019-05-13T23:40:22.117Z,2.80
2019-05-13T23:42:51.795Z,3.33
2019-05-13T23:45:21.802Z,2.72
2019-05-13T23:47:51.065Z,3.25
2019-05-13T23:50:21.486Z,2.30
2019-05-13T23:52:51.171Z,2.83
2019-05-13T23:55:19.895Z,2.45
2019-05-13T23:57:48.298Z,2.62
